Terminal Aerodrome Forecast
Issued by NWS Wilmington, OH

Current Version | Previous Version | Graphics & Text | Print | Product List | Glossary On
Versions: 1 2 3 4 5 6 7 8 9 10 11 12 13 14 15 16 17 18 19 20 21 22 23 24 25 26 27 28 29 30 31 32 33 34 35 36 37 38 39 40 41
000
FTUS41 KILN 212336
TAFCVG
TAF
KCVG 212336Z 2200/2306 24005KT P6SM VCSH FEW050 BKN250
     FM220300 21004KT P6SM BKN250
     FM221400 20010KT P6SM BKN040
     FM222000 20011KT P6SM VCSH BKN035
     FM230000 18009KT 6SM -SHRA VCTS SCT025CB BKN090
     FM230300 18010KT P6SM -SHRA VCTS BKN025CB=

USA.gov is the U.S. government's official web portal to all federal, state and local government web resources and services.